Terminal Aerodrome Forecast
Issued by NWS Springfield, MO

Home | Current Version | Previous Version | Text Only | Print | Product List | Glossary On
Versions: 1 2 3 4 5 6 7 8 9 10 11 12 13 14 15 16 17 18 19 20
000
FTUS43 KSGF 232200 AAA
TAFSGF
TAF AMD
KSGF 232250Z 2323/2418 28005KT P6SM SCT025 OVC150
      TEMPO 2323/2403 BKN025
     FM240300 31006KT P6SM BKN020
     FM240900 31008KT 6SM -RASN BR OVC020
     FM241500 31009KT 6SM -RASN BR OVC007=

USA.gov is the U.S. government's official web portal to all federal, state and local government web resources and services.